Flight Track Log - Related Links

Times and Time Zones

All times are in EDT time to prevent confusion due to time zone crossing. See the N920AC flight status page for this flight to view local times or setup timezone preferences in your user account.

Time Position Orientation Groundspeed Altitude Reporting Facility
EDT Latitude Longitude Course Direction KTS km/h feet Rate Location/Type
Tue 13:31:16 27.3833 -82.5500 180° South 78 145 600  Level Tampa TRACON
Tue 13:32:16 27.3500 -82.5500 180° South 92 171 1,100 450 Climbing Tampa TRACON
Tue 13:33:16 27.3333 -82.5667 222° Southwest 94 174 1,500 421 Climbing Tampa TRACON
Tue 13:34:10 27.3167 -82.5667 180° South 96 177 1,900 400 Climbing Tampa TRACON
Tue 13:35:16 27.2833 -82.5667 180° South 91 169 2,300 429 Climbing Tampa TRACON
Tue 13:36:00 27.2624 -82.3957 138° Southeast  Level FlightAware Approximate
Tue 13:36:16 27.2667 -82.5500 138° Southeast 81 150 2,800  Level Tampa TRACON
Tue 13:37:28 27.2333 -82.5333 156° South 82 151 3,200 409 Climbing Tampa TRACON
Tue 13:38:28 27.2167 -82.5333 180° South 81 150 3,700 429 Climbing Tampa TRACON
Tue 13:39:34 27.2000 -82.5167 138° Southeast 83 154 4,100 368 Climbing Tampa TRACON
Tue 13:40:22 27.1833 -82.5000 138° Southeast 83 154 4,400 353 Climbing Tampa TRACON
Tue 13:41:16 27.1667 -82.5000 180° South 81 150 4,700 286 Climbing Tampa TRACON
Tue 13:42:28 27.1500 -82.4667 119° Southeast 84 156 5,000 126 Climbing Tampa TRACON
Tue 13:43:39 27.1183 -82.4569 165° South 84 156 5,000  Level Miami Center
Tue 13:44:41 27.0944 -82.4436 154° Southeast 89 164 5,000  Level Miami Center
Tue 13:45:43 27.0739 -82.4267 144° Southeast 89 164 5,000  Level Miami Center
Tue 13:46:44 27.0533 -82.4061 138° Southeast 91 169 5,000  Level Miami Center
Tue 13:47:46 27.0267 -82.3836 143° Southeast 96 177 5,000  Level Miami Center
Tue 13:48:48 27.0039 -82.3678 148° Southeast 96 177 5,000 48 Level Miami Center
Tue 13:49:50 26.9803 -82.3486 144° Southeast 97 180 5,100  Climbing Miami Center
Tue 13:50:51 26.9569 -82.3333 150° Southeast 98 182 5,000 -49 Descending Miami Center
Tue 13:51:53 26.9339 -82.3178 149° Southeast 98 182 5,000  Level Miami Center
Tue 13:52:55 26.9072 -82.3028 153° Southeast 98 182 5,000  Level Miami Center
Tue 13:53:56 26.8781 -82.2992 174° South 107 198 5,000  Level Miami Center
Tue 13:54:58 26.8469 -82.2950 173° South 106 196 5,000  Level Miami Center
Tue 13:56:00 26.8183 -82.2925 176° South 106 196 5,000  Level Miami Center
Tue 13:57:01 26.7864 -82.2889 174° South 106 196 5,000  Level Miami Center
Tue 13:58:03 26.7572 -82.2867 176° South 106 196 5,000  Level Miami Center
Tue 13:59:05 26.7258 -82.2839 175° South 104 193 5,000  Level Miami Center
Tue 14:00:07 26.6978 -82.2806 174° South 104 193 5,000  Level Miami Center
Tue 14:01:08 26.6667 -82.2764 173° South 104 193 5,000  Level Miami Center
Tue 14:02:10 26.6383 -82.2733 174° South 104 193 5,000  Level Miami Center
Tue 14:03:12 26.6119 -82.2625 160° South 96 177 5,000  Level Miami Center
Tue 14:04:13 26.5881 -82.2492 153° Southeast 95 175 5,000  Level Miami Center
Tue 14:05:15 26.5639 -82.2322 148° Southeast 96 177 5,000  Level Miami Center
Tue 14:06:17 26.5439 -82.2139 141° Southeast 93 172 5,000  Level Miami Center
Tue 14:07:18 26.5247 -82.1933 136° Southeast 96 177 5,000  Level Miami Center
Tue 14:08:20 26.5003 -82.1769 149° Southeast 96 177 5,000  Level Miami Center
Tue 14:09:22 26.4764 -82.1625 152° Southeast 96 177 5,000  Level Miami Center
Tue 14:10:23 26.4514 -82.1447 148° Southeast 97 180 5,000  Level Miami Center
Tue 14:11:25 26.4292 -82.1300 149° Southeast 97 180 5,000  Level Miami Center
Tue 14:12:27 26.4019 -82.1200 162° South 97 180 5,000  Level Miami Center
Tue 14:13:28 26.3758 -82.1086 159° South 99 183 5,000 -49 Level Miami Center
Tue 14:14:30 26.3544 -82.0889 140° Southeast 97 180 4,900 -97 Descending Miami Center
Tue 14:15:32 26.3269 -82.0833 170° South 98 182 4,800 -341 Descending Miami Center
Tue 14:16:33 26.2944 -82.0808 176° South 108 200 4,200 -537 Descending Miami Center
Tue 14:17:35 26.2647 -82.0772 174° South 109 201 3,700 -484 Descending Miami Center
Tue 14:18:37 26.2353 -82.0633 157° South 109 201 3,200 -537 Descending Miami Center
Tue 14:19:38 26.2069 -82.0539 163° South 108 200 2,600 -537 Descending Miami Center
Tue 14:20:40 26.1808 -82.0381 151° Southeast 108 200 2,100 -242 Descending Miami Center
Tue 14:21:42 26.1542 -82.0258 158° South 99 183 2,100 48 Level Miami Center
Tue 14:22:44 26.1286 -82.0153 160° South 98 182 2,200  Climbing Miami Center
Tue 14:23:45 26.0992 -82.0028 159° South 101 187 2,100 -49 Descending Miami Center
Tue 14:24:47 26.0700 -81.9975 171° South 106 196 2,100  Level Miami Center
Tue 14:25:49 26.0472 -81.9769 141° Southeast 100 185 2,100  Level Miami Center
Tue 14:26:51 26.0294 -81.9569 135° Southeast 96 177 2,100  Level Miami Center
Tue 14:27:53 26.0136 -81.9314 125° Southeast 95 175 2,100  Level Miami Center
Tue 14:28:54 26.0264 -81.9111 55° Northeast 90 167 2,100 -98 Level Miami Center
Tue 14:29:56 26.0464 -81.8922 40° Northeast 91 169 1,900 -145 Descending Miami Center
Tue 14:30:58 26.0664 -81.8728 41° Northeast 95 175 1,800 -48 Descending Miami Center
Tue 14:32:00 26.0828 -81.8525 48° Northeast 86 159 1,800 -194 Level Miami Center
Tue 14:33:02 26.0961 -81.8350 50° Northeast 79 146 1,400 -435 Descending Miami Center
Tue 14:34:04 26.1136 -81.8175 42° Northeast 79 146 900 -439 Descending Miami Center
Tue 14:35:05 26.1289 -81.8014 43° Northeast 79 146 500 -293 Descending Miami Center
Tue 14:36:07 26.1444 -81.7836 46° Northeast 77 143 300 -194 Descending Miami Center

Login

Don't have an account? Register now (free) for customized features, flight alerts, and more!